Disclaimer

Please do not use the information listed here in-flight or in-navigation, as they are not provided to us by the airports but are provided by volunteers, so they might be outdated.

Search


Regions


Airport information page

Radio informations:
Tower (TWR) - 118.1 MHz
Ground (GND) - 121.9 MHz
Automatic Terminal Information Service (ATIS) - 126.4 MHz
ARR - 125.5 MHz
Approach (APP) - 119.1 MHz

Airport informations:
Latitude: 13° 54' 45.30" N
Longitude: 100° 36' 24.30" E
Elevation: 9 feet - 3 meters
Operating hours: 24 hour operations
Operating agency: Military-civil joint use airport
Timezone: UTC+7
Fuel: Jet A1+, Jet A1 with icing inhibitor.

Jet B, Wide cut turbine fuel, Without icing inhibitor.

JP-4, Wide cut turbine fuel MIL Spec T-5624

Jet A1, without icing nhibitor.

115/145 octane gasoline, leaded, MIL-L-5572F (PURPLE)

100/130 octane gasoline, leaded, MIL-L-5572F (GREEN)

100/130 MIL Spec, low lead, aviation gasoline (BLUE)

Runway information:
03R/21L - 11483 x 148 feet< - >3500 x 45 meters
03L/21R - 12139 x 197 feet< - >3700 x 60 meters

Recent METARs:
VTBD 190400Z 35007KT 270V010 9999 FEW020 32/24 Q1014 NOSIG
VTBD 190430Z 34008KT 260V010 9999 FEW020 32/25 Q1013 NOSIG
VTBD 190530Z 01006KT 320V050 9999 FEW020 33/26 Q1012 NOSIG

Airport on the map: